sensor_id;sensor_type;location;lat;lon;timestamp;pressure;altitude;pressure_sealevel;temperature;humidity
5296;BME280;2670;42.720;23.336;2023-02-04T00:01:40;-22447.19;;;0.21;100.00
5296;BME280;2670;42.720;23.336;2023-02-04T00:04:06;-22448.22;;;0.25;100.00
5296;BME280;2670;42.720;23.336;2023-02-04T00:06:33;-22448.09;;;0.24;100.00
5296;BME280;2670;42.720;23.336;2023-02-04T00:09:00;-22448.09;;;0.24;100.00
5296;BME280;2670;42.720;23.336;2023-02-04T00:11:28;-22448.38;;;0.26;100.00
5296;BME280;2670;42.720;23.336;2023-02-04T00:13:55;-22450.47;;;0.33;100.00
5296;BME280;2670;42.720;23.336;2023-02-04T00:16:22;-22451.81;;;0.37;100.00
5296;BME280;2670;42.720;23.336;2023-02-04T00:18:48;-22450.78;;;0.34;100.00
5296;BME280;2670;42.720;23.336;2023-02-04T00:21:15;-22449.13;;;0.28;100.00
5296;BME280;2670;42.720;23.336;2023-02-04T00:23:42;-22451.22;;;0.35;100.00
5296;BME280;2670;42.720;23.336;2023-02-04T00:26:09;-22452.56;;;0.40;100.00
5296;BME280;2670;42.720;23.336;2023-02-04T00:28:37;-22451.97;;;0.38;100.00
5296;BME280;2670;42.720;23.336;2023-02-04T00:31:04;-22454.06;;;0.45;100.00
5296;BME280;2670;42.720;23.336;2023-02-04T00:33:31;-22452.56;;;0.40;100.00
5296;BME280;2670;42.720;23.336;2023-02-04T00:35:58;-22453.03;;;0.41;100.00
5296;BME280;2670;42.720;23.336;2023-02-04T00:38:25;-22453.03;;;0.41;100.00
5296;BME280;2670;42.720;23.336;2023-02-04T00:40:51;-22452.44;;;0.39;100.00
5296;BME280;2670;42.720;23.336;2023-02-04T00:43:18;-22451.97;;;0.38;100.00
5296;BME280;2670;42.720;23.336;2023-02-04T00:45:46;-22451.69;;;0.37;100.00
5296;BME280;2670;42.720;23.336;2023-02-04T00:48:13;-22450.19;;;0.32;100.00
5296;BME280;2670;42.720;23.336;2023-02-04T00:50:40;-22448.22;;;0.25;100.00
5296;BME280;2670;42.720;23.336;2023-02-04T00:53:06;-22451.97;;;0.38;100.00
5296;BME280;2670;42.720;23.336;2023-02-04T00:55:34;-22449.44;;;0.29;100.00
5296;BME280;2670;42.720;23.336;2023-02-04T00:58:01;-22448.84;;;0.27;100.00
5296;BME280;2670;42.720;23.336;2023-02-04T01:00:27;-22451.22;;;0.35;100.00
5296;BME280;2670;42.720;23.336;2023-02-04T01:02:55;-22451.69;;;0.37;100.00
5296;BME280;2670;42.720;23.336;2023-02-04T01:05:22;-22453.63;;;0.43;100.00
5296;BME280;2670;42.720;23.336;2023-02-04T01:07:49;-22451.22;;;0.35;100.00
5296;BME280;2670;42.720;23.336;2023-02-04T01:10:16;-22447.34;;;0.22;100.00
5296;BME280;2670;42.720;23.336;2023-02-04T01:12:43;-22448.97;;;0.28;100.00
5296;BME280;2670;42.720;23.336;2023-02-04T01:15:10;-22451.81;;;0.37;100.00
5296;BME280;2670;42.720;23.336;2023-02-04T01:17:36;-22452.88;;;0.41;100.00
5296;BME280;2670;42.720;23.336;2023-02-04T01:20:05;-22453.34;;;0.42;100.00
5296;BME280;2670;42.720;23.336;2023-02-04T01:22:32;-22453.78;;;0.44;100.00
5296;BME280;2670;42.720;23.336;2023-02-04T01:24:59;-22451.69;;;0.37;100.00
5296;BME280;2670;42.720;23.336;2023-02-04T01:27:26;-22451.97;;;0.38;100.00
5296;BME280;2670;42.720;23.336;2023-02-04T01:29:52;-22450.19;;;0.32;100.00
5296;BME280;2670;42.720;23.336;2023-02-04T01:32:19;-22451.97;;;0.38;100.00
5296;BME280;2670;42.720;23.336;2023-02-04T01:34:46;-22452.56;;;0.40;100.00
5296;BME280;2670;42.720;23.336;2023-02-04T01:37:14;-22453.78;;;0.44;100.00
5296;BME280;2670;42.720;23.336;2023-02-04T01:39:42;-22455.56;;;0.50;100.00
5296;BME280;2670;42.720;23.336;2023-02-04T01:42:09;-22455.41;;;0.49;100.00
5296;BME280;2670;42.720;23.336;2023-02-04T01:44:35;-22456.47;;;0.53;100.00
5296;BME280;2670;42.720;23.336;2023-02-04T01:47:03;-22458.72;;;0.61;100.00
5296;BME280;2670;42.720;23.336;2023-02-04T01:49:31;-22459.75;;;0.64;100.00
5296;BME280;2670;42.720;23.336;2023-02-04T01:51:57;-22460.50;;;0.67;100.00
5296;BME280;2670;42.720;23.336;2023-02-04T01:54:26;-22456.63;;;0.54;100.00
5296;BME280;2670;42.720;23.336;2023-02-04T01:56:53;-22458.56;;;0.60;100.00
5296;BME280;2670;42.720;23.336;2023-02-04T01:59:20;-22458.72;;;0.61;100.00
5296;BME280;2670;42.720;23.336;2023-02-04T02:01:49;-22460.06;;;0.65;100.00
5296;BME280;2670;42.720;23.336;2023-02-04T02:04:20;-22463.34;;;0.77;100.00
5296;BME280;2670;42.720;23.336;2023-02-04T02:06:52;-22463.50;;;0.77;100.00
5296;BME280;2670;42.720;23.336;2023-02-04T02:09:21;-22465.91;;;0.85;100.00
5296;BME280;2670;42.720;23.336;2023-02-04T02:11:50;-22462.91;;;0.75;100.00
5296;BME280;2670;42.720;23.336;2023-02-04T02:14:17;-22463.81;;;0.78;100.00
5296;BME280;2670;42.720;23.336;2023-02-04T02:16:44;-22463.66;;;0.78;100.00
5296;BME280;2670;42.720;23.336;2023-02-04T02:19:19;-22463.22;;;0.76;100.00
5296;BME280;2670;42.720;23.336;2023-02-04T02:21:53;-22465.91;;;0.85;100.00
5296;BME280;2670;42.720;23.336;2023-02-04T02:24:28;-22466.94;;;0.89;100.00
5296;BME280;2670;42.720;23.336;2023-02-04T02:26:57;-22466.50;;;0.87;100.00
5296;BME280;2670;42.720;23.336;2023-02-04T02:29:26;-22469.19;;;0.96;100.00
5296;BME280;2670;42.720;23.336;2023-02-04T02:31:54;-22468.75;;;0.95;100.00
5296;BME280;2670;42.720;23.336;2023-02-04T02:34:22;-22470.25;;;1.00;100.00
5296;BME280;2670;42.720;23.336;2023-02-04T02:36:49;-22471.75;;;1.05;100.00
5296;BME280;2670;42.720;23.336;2023-02-04T02:39:16;-22472.47;;;1.08;100.00
5296;BME280;2670;42.720;23.336;2023-02-04T02:41:44;-22472.19;;;1.07;100.00
5296;BME280;2670;42.720;23.336;2023-02-04T02:44:12;-22473.38;;;1.11;100.00
5296;BME280;2670;42.720;23.336;2023-02-04T02:46:40;-22473.69;;;1.12;100.00
5296;BME280;2670;42.720;23.336;2023-02-04T02:49:12;-22468.28;;;0.93;100.00
5296;BME280;2670;42.720;23.336;2023-02-04T02:51:40;-22470.25;;;1.00;100.00
5296;BME280;2670;42.720;23.336;2023-02-04T02:54:13;-22468.00;;;0.92;100.00
5296;BME280;2670;42.720;23.336;2023-02-04T02:56:45;-22465.59;;;0.84;100.00
5296;BME280;2670;42.720;23.336;2023-02-04T02:59:12;-22465.47;;;0.84;100.00
5296;BME280;2670;42.720;23.336;2023-02-04T03:01:40;-22466.66;;;0.88;100.00
5296;BME280;2670;42.720;23.336;2023-02-04T03:04:08;-22466.66;;;0.88;100.00
5296;BME280;2670;42.720;23.336;2023-02-04T03:06:36;-22465.91;;;0.85;100.00
5296;BME280;2670;42.720;23.336;2023-02-04T03:09:02;-22462.59;;;0.74;100.00
5296;BME280;2670;42.720;23.336;2023-02-04T03:11:29;-22466.19;;;0.86;100.00
5296;BME280;2670;42.720;23.336;2023-02-04T03:13:59;-22466.19;;;0.86;100.00
5296;BME280;2670;42.720;23.336;2023-02-04T03:16:27;-22465.91;;;0.85;100.00
5296;BME280;2670;42.720;23.336;2023-02-04T03:18:54;-22464.25;;;0.80;100.00
5296;BME280;2670;42.720;23.336;2023-02-04T03:21:21;-22467.09;;;0.89;100.00
5296;BME280;2670;42.720;23.336;2023-02-04T03:23:48;-22466.66;;;0.88;100.00
5296;BME280;2670;42.720;23.336;2023-02-04T03:26:15;-22466.81;;;0.88;100.00
5296;BME280;2670;42.720;23.336;2023-02-04T03:28:42;-22465.31;;;0.83;100.00
5296;BME280;2670;42.720;23.336;2023-02-04T03:31:10;-22466.66;;;0.88;100.00
5296;BME280;2670;42.720;23.336;2023-02-04T03:33:37;-22466.50;;;0.87;100.00
5296;BME280;2670;42.720;23.336;2023-02-04T03:36:04;-22466.50;;;0.87;100.00
5296;BME280;2670;42.720;23.336;2023-02-04T03:38:31;-22462.91;;;0.75;100.00
5296;BME280;2670;42.720;23.336;2023-02-04T03:40:59;-22463.06;;;0.76;100.00
5296;BME280;2670;42.720;23.336;2023-02-04T03:43:25;-22465.75;;;0.85;100.00
5296;BME280;2670;42.720;23.336;2023-02-04T03:45:52;-22465.47;;;0.84;100.00
5296;BME280;2670;42.720;23.336;2023-02-04T03:48:20;-22466.81;;;0.88;100.00
5296;BME280;2670;42.720;23.336;2023-02-04T03:50:47;-22470.09;;;0.99;100.00
5296;BME280;2670;42.720;23.336;2023-02-04T03:53:14;-22469.78;;;0.98;100.00
5296;BME280;2670;42.720;23.336;2023-02-04T03:55:41;-22470.09;;;0.99;100.00
5296;BME280;2670;42.720;23.336;2023-02-04T03:58:07;-22469.66;;;0.98;100.00
5296;BME280;2670;42.720;23.336;2023-02-04T04:00:34;-22471.75;;;1.05;100.00
5296;BME280;2670;42.720;23.336;2023-02-04T04:03:01;-22473.09;;;1.10;100.00
5296;BME280;2670;42.720;23.336;2023-02-04T04:05:29;-22476.38;;;1.21;100.00
5296;BME280;2670;42.720;23.336;2023-02-04T04:07:56;-22472.19;;;1.07;100.00
5296;BME280;2670;42.720;23.336;2023-02-04T04:10:23;-22471.75;;;1.05;100.00
5296;BME280;2670;42.720;23.336;2023-02-04T04:12:50;-22475.34;;;1.17;100.00
5296;BME280;2670;42.720;23.336;2023-02-04T04:15:17;-22476.69;;;1.22;100.00
5296;BME280;2670;42.720;23.336;2023-02-04T04:17:44;-22476.53;;;1.21;100.00
5296;BME280;2670;42.720;23.336;2023-02-04T04:20:11;-22477.41;;;1.24;100.00
5296;BME280;2670;42.720;23.336;2023-02-04T04:22:39;-22474.88;;;1.16;100.00
5296;BME280;2670;42.720;23.336;2023-02-04T04:25:07;-22474.13;;;1.13;100.00
5296;BME280;2670;42.720;23.336;2023-02-04T04:27:34;-22474.59;;;1.15;100.00
5296;BME280;2670;42.720;23.336;2023-02-04T04:30:01;-22472.94;;;1.09;100.00
5296;BME280;2670;42.720;23.336;2023-02-04T04:32:27;-22477.28;;;1.24;100.00
5296;BME280;2670;42.720;23.336;2023-02-04T04:34:54;-22472.19;;;1.07;100.00
5296;BME280;2670;42.720;23.336;2023-02-04T04:37:21;-22468.75;;;0.95;100.00
5296;BME280;2670;42.720;23.336;2023-02-04T04:39:49;-22466.81;;;0.88;100.00
5296;BME280;2670;42.720;23.336;2023-02-04T04:42:16;-22466.06;;;0.86;100.00
5296;BME280;2670;42.720;23.336;2023-02-04T04:44:43;-22463.06;;;0.76;100.00
5296;BME280;2670;42.720;23.336;2023-02-04T04:47:09;-22463.81;;;0.78;100.00
5296;BME280;2670;42.720;23.336;2023-02-04T04:49:36;-22463.66;;;0.78;100.00
5296;BME280;2670;42.720;23.336;2023-02-04T04:52:03;-22463.06;;;0.76;100.00
5296;BME280;2670;42.720;23.336;2023-02-04T04:54:30;-22463.22;;;0.76;100.00
5296;BME280;2670;42.720;23.336;2023-02-04T04:56:58;-22465.75;;;0.85;100.00
5296;BME280;2670;42.720;23.336;2023-02-04T04:59:25;-22464.41;;;0.80;100.00
5296;BME280;2670;42.720;23.336;2023-02-04T05:01:52;-22466.19;;;0.86;100.00
5296;BME280;2670;42.720;23.336;2023-02-04T05:04:19;-22467.41;;;0.90;100.00
5296;BME280;2670;42.720;23.336;2023-02-04T05:06:45;-22466.94;;;0.89;100.00
5296;BME280;2670;42.720;23.336;2023-02-04T05:09:12;-22467.53;;;0.91;100.00
5296;BME280;2670;42.720;23.336;2023-02-04T05:11:41;-22470.53;;;1.01;100.00
5296;BME280;2670;42.720;23.336;2023-02-04T05:14:09;-22475.47;;;1.18;100.00
5296;BME280;2670;42.720;23.336;2023-02-04T05:16:36;-22480.56;;;1.35;100.00
5296;BME280;2670;42.720;23.336;2023-02-04T05:19:03;-22487.00;;;1.57;100.00
5296;BME280;2670;42.720;23.336;2023-02-04T05:21:30;-22492.22;;;1.75;100.00
5296;BME280;2670;42.720;23.336;2023-02-04T05:23:57;-22490.88;;;1.70;100.00
5296;BME280;2670;42.720;23.336;2023-02-04T05:26:24;-22496.28;;;1.89;100.00
5296;BME280;2670;42.720;23.336;2023-02-04T05:28:51;-22496.88;;;1.91;100.00
5296;BME280;2670;42.720;23.336;2023-02-04T05:31:19;-22498.97;;;1.98;100.00
5296;BME280;2670;42.720;23.336;2023-02-04T05:33:46;-22499.84;;;2.01;100.00
5296;BME280;2670;42.720;23.336;2023-02-04T05:36:13;-22499.09;;;1.98;100.00
5296;BME280;2670;42.720;23.336;2023-02-04T05:38:39;-22499.09;;;1.98;100.00
5296;BME280;2670;42.720;23.336;2023-02-04T05:41:06;-22499.84;;;2.01;100.00
5296;BME280;2670;42.720;23.336;2023-02-04T05:43:33;-22502.84;;;2.11;100.00
5296;BME280;2670;42.720;23.336;2023-02-04T05:46:00;-22498.97;;;1.98;100.00
5296;BME280;2670;42.720;23.336;2023-02-04T05:48:28;-22497.47;;;1.93;100.00
5296;BME280;2670;42.720;23.336;2023-02-04T05:50:55;-22496.72;;;1.90;100.00
5296;BME280;2670;42.720;23.336;2023-02-04T05:53:22;-22498.34;;;1.96;100.00
5296;BME280;2670;42.720;23.336;2023-02-04T05:55:49;-22499.25;;;1.99;100.00
5296;BME280;2670;42.720;23.336;2023-02-04T05:58:15;-22498.22;;;1.95;100.00
5296;BME280;2670;42.720;23.336;2023-02-04T06:00:42;-22498.50;;;1.96;100.00
5296;BME280;2670;42.720;23.336;2023-02-04T06:03:09;-22497.63;;;1.93;100.00
5296;BME280;2670;42.720;23.336;2023-02-04T06:05:37;-22496.13;;;1.88;100.00
5296;BME280;2670;42.720;23.336;2023-02-04T06:08:04;-22496.13;;;1.88;100.00
5296;BME280;2670;42.720;23.336;2023-02-04T06:10:30;-22495.06;;;1.85;100.00
5296;BME280;2670;42.720;23.336;2023-02-04T06:12:57;-22496.28;;;1.89;100.00
5296;BME280;2670;42.720;23.336;2023-02-04T06:15:24;-22495.66;;;1.87;100.00
5296;BME280;2670;42.720;23.336;2023-02-04T06:17:51;-22496.56;;;1.90;100.00
5296;BME280;2670;42.720;23.336;2023-02-04T06:20:18;-22497.47;;;1.93;100.00
5296;BME280;2670;42.720;23.336;2023-02-04T06:22:46;-22496.72;;;1.90;100.00
5296;BME280;2670;42.720;23.336;2023-02-04T06:25:16;-22497.75;;;1.94;100.00
5296;BME280;2670;42.720;23.336;2023-02-04T06:27:42;-22499.84;;;2.01;100.00
5296;BME280;2670;42.720;23.336;2023-02-04T06:30:10;-22499.69;;;2.00;100.00
5296;BME280;2670;42.720;23.336;2023-02-04T06:32:37;-22501.50;;;2.07;100.00
5296;BME280;2670;42.720;23.336;2023-02-04T06:35:05;-22503.28;;;2.13;100.00
5296;BME280;2670;42.720;23.336;2023-02-04T06:37:32;-22502.84;;;2.11;100.00
5296;BME280;2670;42.720;23.336;2023-02-04T06:40:00;-22503.88;;;2.15;100.00
5296;BME280;2670;42.720;23.336;2023-02-04T06:42:27;-22504.03;;;2.15;100.00
5296;BME280;2670;42.720;23.336;2023-02-04T06:44:53;-22503.13;;;2.12;100.00
5296;BME280;2670;42.720;23.336;2023-02-04T06:47:20;-22504.94;;;2.18;100.00
5296;BME280;2670;42.720;23.336;2023-02-04T06:49:47;-22507.31;;;2.27;100.00
5296;BME280;2670;42.720;23.336;2023-02-04T06:52:14;-22508.66;;;2.31;100.00
5296;BME280;2670;42.720;23.336;2023-02-04T06:54:40;-22511.22;;;2.40;100.00
5296;BME280;2670;42.720;23.336;2023-02-04T06:57:09;-22514.34;;;2.50;100.00
5296;BME280;2670;42.720;23.336;2023-02-04T06:59:38;-22516.00;;;2.56;100.00
5296;BME280;2670;42.720;23.336;2023-02-04T07:02:06;-22519.44;;;2.68;100.00
5296;BME280;2670;42.720;23.336;2023-02-04T07:04:33;-22520.19;;;2.70;100.00
5296;BME280;2670;42.720;23.336;2023-02-04T07:07:00;-22519.72;;;2.69;100.00
5296;BME280;2670;42.720;23.336;2023-02-04T07:09:27;-22522.28;;;2.78;100.00
5296;BME280;2670;42.720;23.336;2023-02-04T07:11:54;-22523.16;;;2.81;100.00
5296;BME280;2670;42.720;23.336;2023-02-04T07:14:22;-22523.31;;;2.81;100.00
5296;BME280;2670;42.720;23.336;2023-02-04T07:16:49;-22525.09;;;2.87;100.00
5296;BME280;2670;42.720;23.336;2023-02-04T07:19:15;-22528.25;;;2.98;100.00
5296;BME280;2670;42.720;23.336;2023-02-04T07:21:42;-22529.28;;;3.02;100.00
5296;BME280;2670;42.720;23.336;2023-02-04T07:24:09;-22535.25;;;3.22;100.00
5296;BME280;2670;42.720;23.336;2023-02-04T07:26:36;-22534.22;;;3.18;100.00
5296;BME280;2670;42.720;23.336;2023-02-04T07:29:02;-22536.75;;;3.27;100.00
5296;BME280;2670;42.720;23.336;2023-02-04T07:31:30;-22535.25;;;3.22;100.00
5296;BME280;2670;42.720;23.336;2023-02-04T07:33:57;-22533.31;;;3.15;100.00
5296;BME280;2670;42.720;23.336;2023-02-04T07:36:24;-22530.78;;;3.07;100.00
5296;BME280;2670;42.720;23.336;2023-02-04T07:38:51;-22534.06;;;3.18;100.00
5296;BME280;2670;42.720;23.336;2023-02-04T07:41:18;-22536.00;;;3.24;100.00
5296;BME280;2670;42.720;23.336;2023-02-04T07:43:45;-22540.50;;;3.40;100.00
5296;BME280;2670;42.720;23.336;2023-02-04T07:46:12;-22543.91;;;3.52;100.00
5296;BME280;2670;42.720;23.336;2023-02-04T07:48:40;-22544.97;;;3.55;100.00
5296;BME280;2670;42.720;23.336;2023-02-04T07:51:07;-22547.81;;;3.65;100.00
5296;BME280;2670;42.720;23.336;2023-02-04T07:53:34;-22548.41;;;3.67;100.00
5296;BME280;2670;42.720;23.336;2023-02-04T07:56:01;-22553.16;;;3.83;100.00
5296;BME280;2670;42.720;23.336;2023-02-04T07:58:28;-22552.56;;;3.81;100.00
5296;BME280;2670;42.720;23.336;2023-02-04T08:00:55;-22554.22;;;3.87;100.00
5296;BME280;2670;42.720;23.336;2023-02-04T08:03:21;-22555.13;;;3.90;100.00
5296;BME280;2670;42.720;23.336;2023-02-04T08:05:49;-22552.56;;;3.81;100.00
5296;BME280;2670;42.720;23.336;2023-02-04T08:08:16;-22554.66;;;3.88;100.00
5296;BME280;2670;42.720;23.336;2023-02-04T08:10:43;-22554.06;;;3.86;100.00
5296;BME280;2670;42.720;23.336;2023-02-04T08:13:10;-22554.66;;;3.88;100.00
5296;BME280;2670;42.720;23.336;2023-02-04T08:15:37;-22556.75;;;3.95;100.00
5296;BME280;2670;42.720;23.336;2023-02-04T08:18:04;-22555.72;;;3.92;100.00
5296;BME280;2670;42.720;23.336;2023-02-04T08:20:31;-22554.22;;;3.87;100.00
5296;BME280;2670;42.720;23.336;2023-02-04T08:22:59;-22553.31;;;3.84;100.00
5296;BME280;2670;42.720;23.336;2023-02-04T08:25:26;-22549.88;;;3.72;100.00
5296;BME280;2670;42.720;23.336;2023-02-04T08:27:54;-22551.09;;;3.76;100.00
5296;BME280;2670;42.720;23.336;2023-02-04T08:30:20;-22547.81;;;3.65;100.00
5296;BME280;2670;42.720;23.336;2023-02-04T08:32:47;-22547.19;;;3.63;100.00
5296;BME280;2670;42.720;23.336;2023-02-04T08:35:15;-22545.72;;;3.58;100.00
5296;BME280;2670;42.720;23.336;2023-02-04T08:37:42;-22543.63;;;3.50;100.00
5296;BME280;2670;42.720;23.336;2023-02-04T08:40:11;-22541.09;;;3.42;100.00
5296;BME280;2670;42.720;23.336;2023-02-04T08:42:37;-22543.47;;;3.50;100.00
5296;BME280;2670;42.720;23.336;2023-02-04T08:45:05;-22545.72;;;3.58;100.00
5296;BME280;2670;42.720;23.336;2023-02-04T08:47:31;-22545.84;;;3.58;100.00
5296;BME280;2670;42.720;23.336;2023-02-04T08:49:58;-22549.88;;;3.72;100.00
5296;BME280;2670;42.720;23.336;2023-02-04T08:52:25;-22548.84;;;3.68;100.00
5296;BME280;2670;42.720;23.336;2023-02-04T08:54:52;-22551.97;;;3.79;100.00
5296;BME280;2670;42.720;23.336;2023-02-04T08:57:20;-22548.84;;;3.68;100.00
5296;BME280;2670;42.720;23.336;2023-02-04T08:59:47;-22548.84;;;3.68;100.00
5296;BME280;2670;42.720;23.336;2023-02-04T09:02:13;-22544.38;;;3.53;100.00
5296;BME280;2670;42.720;23.336;2023-02-04T09:04:40;-22545.72;;;3.58;100.00
5296;BME280;2670;42.720;23.336;2023-02-04T09:07:07;-22545.56;;;3.57;100.00
5296;BME280;2670;42.720;23.336;2023-02-04T09:09:34;-22543.31;;;3.49;100.00
5296;BME280;2670;42.720;23.336;2023-02-04T09:12:00;-22543.03;;;3.48;100.00
5296;BME280;2670;42.720;23.336;2023-02-04T09:14:29;-22546.75;;;3.61;100.00
5296;BME280;2670;42.720;23.336;2023-02-04T09:16:55;-22545.41;;;3.57;100.00
5296;BME280;2670;42.720;23.336;2023-02-04T09:19:22;-22548.84;;;3.68;100.00
5296;BME280;2670;42.720;23.336;2023-02-04T09:21:50;-22546.91;;;3.62;100.00
5296;BME280;2670;42.720;23.336;2023-02-04T09:24:17;-22546.75;;;3.61;100.00
5296;BME280;2670;42.720;23.336;2023-02-04T09:26:44;-22549.16;;;3.69;100.00
5296;BME280;2670;42.720;23.336;2023-02-04T09:29:11;-22553.63;;;3.85;100.00
5296;BME280;2670;42.720;23.336;2023-02-04T09:31:39;-22552.28;;;3.80;100.00
5296;BME280;2670;42.720;23.336;2023-02-04T09:34:06;-22556.00;;;3.93;100.00
5296;BME280;2670;42.720;23.336;2023-02-04T09:36:33;-22556.00;;;3.93;100.00
5296;BME280;2670;42.720;23.336;2023-02-04T09:39:03;-22552.44;;;3.81;100.00
5296;BME280;2670;42.720;23.336;2023-02-04T09:41:30;-22552.72;;;3.82;100.00
5296;BME280;2670;42.720;23.336;2023-02-04T09:43:58;-22548.25;;;3.66;100.00
5296;BME280;2670;42.720;23.336;2023-02-04T09:46:26;-22542.44;;;3.46;100.00
5296;BME280;2670;42.720;23.336;2023-02-04T09:48:57;-22539.28;;;3.36;100.00
5296;BME280;2670;42.720;23.336;2023-02-04T09:51:26;-22537.66;;;3.30;100.00
5296;BME280;2670;42.720;23.336;2023-02-04T09:53:57;-22536.31;;;3.25;100.00
5296;BME280;2670;42.720;23.336;2023-02-04T09:56:28;-22536.47;;;3.26;100.00
5296;BME280;2670;42.720;23.336;2023-02-04T09:58:56;-22535.84;;;3.24;100.00
5296;BME280;2670;42.720;23.336;2023-02-04T10:01:22;-22534.38;;;3.19;100.00
5296;BME280;2670;42.720;23.336;2023-02-04T10:03:49;-22535.41;;;3.22;100.00
5296;BME280;2670;42.720;23.336;2023-02-04T10:06:18;-22537.19;;;3.29;100.00
5296;BME280;2670;42.720;23.336;2023-02-04T10:08:46;-22537.66;;;3.30;100.00
5296;BME280;2670;42.720;23.336;2023-02-04T10:11:15;-22536.59;;;3.27;100.00
5296;BME280;2670;42.720;23.336;2023-02-04T10:13:45;-22537.06;;;3.28;100.00
5296;BME280;2670;42.720;23.336;2023-02-04T10:16:16;-22536.75;;;3.27;100.00
5296;BME280;2670;42.720;23.336;2023-02-04T10:18:44;-22537.50;;;3.30;100.00
5296;BME280;2670;42.720;23.336;2023-02-04T10:21:18;-22535.56;;;3.23;100.00
5296;BME280;2670;42.720;23.336;2023-02-04T10:23:48;-22534.81;;;3.20;100.00
5296;BME280;2670;42.720;23.336;2023-02-04T10:26:15;-22534.50;;;3.19;100.00
5296;BME280;2670;42.720;23.336;2023-02-04T10:28:42;-22534.06;;;3.18;100.00
5296;BME280;2670;42.720;23.336;2023-02-04T10:31:31;-22535.72;;;3.23;100.00
5296;BME280;2670;42.720;23.336;2023-02-04T10:34:12;-22537.50;;;3.30;100.00
5296;BME280;2670;42.720;23.336;2023-02-04T10:36:42;-22537.19;;;3.29;100.00
5296;BME280;2670;42.720;23.336;2023-02-04T10:39:11;-22537.66;;;3.30;100.00
5296;BME280;2670;42.720;23.336;2023-02-04T10:41:44;-22537.81;;;3.31;100.00
5296;BME280;2670;42.720;23.336;2023-02-04T10:44:14;-22532.56;;;3.13;100.00
5296;BME280;2670;42.720;23.336;2023-02-04T10:46:41;-22533.63;;;3.16;100.00
5296;BME280;2670;42.720;23.336;2023-02-04T10:49:17;-22535.41;;;3.22;100.00
5296;BME280;2670;42.720;23.336;2023-02-04T10:51:47;-22536.75;;;3.27;100.00
5296;BME280;2670;42.720;23.336;2023-02-04T10:54:14;-22540.50;;;3.40;100.00
5296;BME280;2670;42.720;23.336;2023-02-04T10:56:58;-22536.47;;;3.26;100.00
5296;BME280;2670;42.720;23.336;2023-02-04T10:59:26;-22535.41;;;3.22;100.00
5296;BME280;2670;42.720;23.336;2023-02-04T11:01:54;-22535.41;;;3.22;100.00
5296;BME280;2670;42.720;23.336;2023-02-04T11:04:22;-22537.19;;;3.29;100.00
5296;BME280;2670;42.720;23.336;2023-02-04T11:06:51;-22534.38;;;3.19;100.00
5296;BME280;2670;42.720;23.336;2023-02-04T11:09:18;-22536.00;;;3.24;100.00
5296;BME280;2670;42.720;23.336;2023-02-04T11:11:46;-22537.94;;;3.31;100.00
5296;BME280;2670;42.720;23.336;2023-02-04T11:14:25;-22536.91;;;3.28;100.00
5296;BME280;2670;42.720;23.336;2023-02-04T11:16:54;-22539.75;;;3.37;100.00
5296;BME280;2670;42.720;23.336;2023-02-04T11:19:34;-22544.50;;;3.54;100.00
5296;BME280;2670;42.720;23.336;2023-02-04T11:22:20;-22542.28;;;3.46;100.00
5296;BME280;2670;42.720;23.336;2023-02-04T11:24:48;-22540.78;;;3.41;100.00
5296;BME280;2670;42.720;23.336;2023-02-04T11:27:21;-22544.97;;;3.55;100.00
5296;BME280;2670;42.720;23.336;2023-02-04T11:29:48;-22546.59;;;3.61;100.00
5296;BME280;2670;42.720;23.336;2023-02-04T11:32:33;-22542.72;;;3.47;100.00
5296;BME280;2670;42.720;23.336;2023-02-04T11:35:16;-22542.13;;;3.45;100.00
5296;BME280;2670;42.720;23.336;2023-02-04T11:37:47;-22543.31;;;3.49;100.00
5296;BME280;2670;42.720;23.336;2023-02-04T11:40:24;-22543.47;;;3.50;100.00
5296;BME280;2670;42.720;23.336;2023-02-04T11:42:56;-22539.16;;;3.35;100.00
5296;BME280;2670;42.720;23.336;2023-02-04T11:45:26;-22540.50;;;3.40;100.00
5296;BME280;2670;42.720;23.336;2023-02-04T11:47:56;-22542.13;;;3.45;100.00
5296;BME280;2670;42.720;23.336;2023-02-04T11:50:25;-22540.34;;;3.39;100.00
5296;BME280;2670;42.720;23.336;2023-02-04T11:52:55;-22538.53;;;3.33;100.00
5296;BME280;2670;42.720;23.336;2023-02-04T11:55:22;-22542.28;;;3.46;100.00
5296;BME280;2670;42.720;23.336;2023-02-04T11:57:51;-22538.84;;;3.34;100.00
5296;BME280;2670;42.720;23.336;2023-02-04T12:00:20;-22541.69;;;3.44;100.00
5296;BME280;2670;42.720;23.336;2023-02-04T12:02:49;-22546.00;;;3.59;100.00
5296;BME280;2670;42.720;23.336;2023-02-04T12:05:17;-22543.47;;;3.50;100.00
5296;BME280;2670;42.720;23.336;2023-02-04T12:07:46;-22541.53;;;3.43;100.00
5296;BME280;2670;42.720;23.336;2023-02-04T12:10:23;-22542.72;;;3.47;100.00
5296;BME280;2670;42.720;23.336;2023-02-04T12:12:51;-22538.84;;;3.34;100.00
5296;BME280;2670;42.720;23.336;2023-02-04T12:15:21;-22539.28;;;3.36;100.00
5296;BME280;2670;42.720;23.336;2023-02-04T12:18:04;-22535.84;;;3.24;100.00
5296;BME280;2670;42.720;23.336;2023-02-04T12:20:32;-22537.19;;;3.29;100.00
5296;BME280;2670;42.720;23.336;2023-02-04T12:22:59;-22536.91;;;3.28;100.00
5296;BME280;2670;42.720;23.336;2023-02-04T12:25:27;-22538.41;;;3.33;100.00
5296;BME280;2670;42.720;23.336;2023-02-04T12:27:54;-22540.78;;;3.41;100.00
5296;BME280;2670;42.720;23.336;2023-02-04T12:30:22;-22539.88;;;3.38;100.00
5296;BME280;2670;42.720;23.336;2023-02-04T12:32:50;-22538.53;;;3.33;100.00
5296;BME280;2670;42.720;23.336;2023-02-04T12:35:17;-22537.66;;;3.30;100.00
5296;BME280;2670;42.720;23.336;2023-02-04T12:37:44;-22539.75;;;3.37;100.00
5296;BME280;2670;42.720;23.336;2023-02-04T12:40:13;-22539.59;;;3.37;100.00
5296;BME280;2670;42.720;23.336;2023-02-04T12:42:42;-22543.47;;;3.50;100.00
5296;BME280;2670;42.720;23.336;2023-02-04T12:45:11;-22538.84;;;3.34;100.00
5296;BME280;2670;42.720;23.336;2023-02-04T12:47:38;-22537.50;;;3.30;100.00
5296;BME280;2670;42.720;23.336;2023-02-04T12:50:06;-22538.25;;;3.32;100.00
5296;BME280;2670;42.720;23.336;2023-02-04T12:52:33;-22540.34;;;3.39;100.00
5296;BME280;2670;42.720;23.336;2023-02-04T12:55:01;-22544.06;;;3.52;100.00
5296;BME280;2670;42.720;23.336;2023-02-04T12:57:29;-22544.06;;;3.52;100.00
5296;BME280;2670;42.720;23.336;2023-02-04T12:59:57;-22545.72;;;3.58;100.00
5296;BME280;2670;42.720;23.336;2023-02-04T13:02:25;-22547.81;;;3.65;100.00
5296;BME280;2670;42.720;23.336;2023-02-04T13:04:53;-22548.09;;;3.66;100.00